sensor_id;sensor_type;location;lat;lon;timestamp;P1;durP1;ratioP1;P2;durP2;ratioP2
69170;SDS011;56279;47.902;12.308;2023-04-06T00:01:19;12.60;;;4.75;;
69170;SDS011;56279;47.902;12.308;2023-04-06T00:03:22;10.45;;;5.10;;
69170;SDS011;56279;47.902;12.308;2023-04-06T00:05:23;10.27;;;5.18;;
69170;SDS011;56279;47.902;12.308;2023-04-06T00:07:24;8.90;;;5.13;;
69170;SDS011;56279;47.902;12.308;2023-04-06T00:09:26;12.27;;;5.50;;
69170;SDS011;56279;47.902;12.308;2023-04-06T00:11:27;9.23;;;4.93;;
69170;SDS011;56279;47.902;12.308;2023-04-06T00:13:28;14.63;;;6.22;;
69170;SDS011;56279;47.902;12.308;2023-04-06T00:15:30;8.63;;;4.78;;
69170;SDS011;56279;47.902;12.308;2023-04-06T00:17:31;9.20;;;5.13;;
69170;SDS011;56279;47.902;12.308;2023-04-06T00:19:34;9.63;;;5.10;;
69170;SDS011;56279;47.902;12.308;2023-04-06T00:21:36;8.35;;;4.93;;
69170;SDS011;56279;47.902;12.308;2023-04-06T00:23:37;9.23;;;4.88;;
69170;SDS011;56279;47.902;12.308;2023-04-06T00:25:38;9.00;;;5.38;;
69170;SDS011;56279;47.902;12.308;2023-04-06T00:27:40;9.40;;;5.18;;
69170;SDS011;56279;47.902;12.308;2023-04-06T00:29:43;9.30;;;5.10;;
69170;SDS011;56279;47.902;12.308;2023-04-06T00:31:45;10.05;;;5.18;;
69170;SDS011;56279;47.902;12.308;2023-04-06T00:33:47;11.15;;;5.80;;
69170;SDS011;56279;47.902;12.308;2023-04-06T00:35:50;12.23;;;5.50;;
69170;SDS011;56279;47.902;12.308;2023-04-06T00:37:51;9.80;;;5.43;;
69170;SDS011;56279;47.902;12.308;2023-04-06T00:39:53;10.43;;;5.03;;
69170;SDS011;56279;47.902;12.308;2023-04-06T00:41:54;11.82;;;5.72;;
69170;SDS011;56279;47.902;12.308;2023-04-06T00:43:57;8.75;;;4.88;;
69170;SDS011;56279;47.902;12.308;2023-04-06T00:45:59;11.27;;;5.25;;
69170;SDS011;56279;47.902;12.308;2023-04-06T00:48:00;12.45;;;5.90;;
69170;SDS011;56279;47.902;12.308;2023-04-06T00:50:06;10.82;;;5.22;;
69170;SDS011;56279;47.902;12.308;2023-04-06T00:52:08;9.60;;;5.25;;
69170;SDS011;56279;47.902;12.308;2023-04-06T00:54:10;11.23;;;5.60;;
69170;SDS011;56279;47.902;12.308;2023-04-06T00:56:11;10.38;;;5.78;;
69170;SDS011;56279;47.902;12.308;2023-04-06T00:58:23;10.05;;;5.53;;
69170;SDS011;56279;47.902;12.308;2023-04-06T01:00:31;11.27;;;5.70;;
69170;SDS011;56279;47.902;12.308;2023-04-06T01:02:35;11.82;;;5.93;;
69170;SDS011;56279;47.902;12.308;2023-04-06T01:04:37;9.27;;;5.97;;
69170;SDS011;56279;47.902;12.308;2023-04-06T01:06:42;10.55;;;5.70;;
69170;SDS011;56279;47.902;12.308;2023-04-06T01:08:43;11.02;;;5.72;;
69170;SDS011;56279;47.902;12.308;2023-04-06T01:10:54;10.23;;;5.65;;
69170;SDS011;56279;47.902;12.308;2023-04-06T01:13:04;12.65;;;6.45;;
69170;SDS011;56279;47.902;12.308;2023-04-06T01:15:20;10.05;;;6.25;;
69170;SDS011;56279;47.902;12.308;2023-04-06T01:17:25;10.27;;;5.68;;
69170;SDS011;56279;47.902;12.308;2023-04-06T01:19:27;12.93;;;6.38;;
69170;SDS011;56279;47.902;12.308;2023-04-06T01:21:30;12.32;;;6.40;;
69170;SDS011;56279;47.902;12.308;2023-04-06T01:23:52;10.48;;;5.75;;
69170;SDS011;56279;47.902;12.308;2023-04-06T01:26:01;11.25;;;5.85;;
69170;SDS011;56279;47.902;12.308;2023-04-06T01:28:05;10.20;;;5.68;;
69170;SDS011;56279;47.902;12.308;2023-04-06T01:30:25;10.88;;;5.90;;
69170;SDS011;56279;47.902;12.308;2023-04-06T01:32:36;13.55;;;5.90;;
69170;SDS011;56279;47.902;12.308;2023-04-06T01:34:38;12.10;;;6.22;;
69170;SDS011;56279;47.902;12.308;2023-04-06T01:36:44;10.40;;;5.45;;
69170;SDS011;56279;47.902;12.308;2023-04-06T01:38:57;13.65;;;6.07;;
69170;SDS011;56279;47.902;12.308;2023-04-06T01:44:47;10.55;;;5.97;;
69170;SDS011;56279;47.902;12.308;2023-04-06T01:46:50;10.48;;;5.55;;
69170;SDS011;56279;47.902;12.308;2023-04-06T01:48:53;11.13;;;5.88;;
69170;SDS011;56279;47.902;12.308;2023-04-06T01:51:16;11.90;;;5.78;;
69170;SDS011;56279;47.902;12.308;2023-04-06T01:53:27;10.80;;;6.10;;
69170;SDS011;56279;47.902;12.308;2023-04-06T04:54:34;12.25;;;6.25;;
69170;SDS011;56279;47.902;12.308;2023-04-06T04:56:36;17.55;;;6.85;;
69170;SDS011;56279;47.902;12.308;2023-04-06T04:58:57;12.73;;;6.70;;
69170;SDS011;56279;47.902;12.308;2023-04-06T05:01:00;14.18;;;6.65;;
69170;SDS011;56279;47.902;12.308;2023-04-06T05:03:03;11.77;;;6.35;;
69170;SDS011;56279;47.902;12.308;2023-04-06T05:05:11;11.57;;;6.53;;
69170;SDS011;56279;47.902;12.308;2023-04-06T05:07:14;10.68;;;6.18;;
69170;SDS011;56279;47.902;12.308;2023-04-06T05:09:16;11.85;;;6.70;;
69170;SDS011;56279;47.902;12.308;2023-04-06T05:11:18;15.48;;;6.25;;
69170;SDS011;56279;47.902;12.308;2023-04-06T05:13:29;11.32;;;6.93;;
69170;SDS011;56279;47.902;12.308;2023-04-06T05:15:32;13.52;;;6.65;;
69170;SDS011;56279;47.902;12.308;2023-04-06T05:17:42;11.77;;;6.75;;
69170;SDS011;56279;47.902;12.308;2023-04-06T05:19:47;14.75;;;6.72;;
69170;SDS011;56279;47.902;12.308;2023-04-06T05:21:54;10.45;;;6.00;;
69170;SDS011;56279;47.902;12.308;2023-04-06T05:23:56;11.50;;;7.00;;
69170;SDS011;56279;47.902;12.308;2023-04-06T05:25:59;12.57;;;6.80;;
69170;SDS011;56279;47.902;12.308;2023-04-06T05:28:01;13.88;;;7.15;;
69170;SDS011;56279;47.902;12.308;2023-04-06T05:30:09;14.50;;;6.90;;
69170;SDS011;56279;47.902;12.308;2023-04-06T05:32:16;13.68;;;6.68;;
69170;SDS011;56279;47.902;12.308;2023-04-06T05:34:23;11.98;;;6.90;;
69170;SDS011;56279;47.902;12.308;2023-04-06T05:36:25;13.55;;;6.53;;
69170;SDS011;56279;47.902;12.308;2023-04-06T05:38:27;11.10;;;6.45;;
69170;SDS011;56279;47.902;12.308;2023-04-06T05:40:32;14.05;;;7.00;;
69170;SDS011;56279;47.902;12.308;2023-04-06T05:42:39;9.43;;;6.15;;
69170;SDS011;56279;47.902;12.308;2023-04-06T05:44:43;14.48;;;6.97;;
69170;SDS011;56279;47.902;12.308;2023-04-06T05:46:48;12.00;;;6.40;;
69170;SDS011;56279;47.902;12.308;2023-04-06T05:48:51;10.35;;;6.35;;
69170;SDS011;56279;47.902;12.308;2023-04-06T05:50:56;11.65;;;6.20;;
69170;SDS011;56279;47.902;12.308;2023-04-06T05:53:05;10.95;;;6.20;;
69170;SDS011;56279;47.902;12.308;2023-04-06T05:55:14;11.02;;;6.00;;
69170;SDS011;56279;47.902;12.308;2023-04-06T05:57:21;9.65;;;6.35;;
69170;SDS011;56279;47.902;12.308;2023-04-06T05:59:24;14.25;;;6.78;;
69170;SDS011;56279;47.902;12.308;2023-04-06T06:01:27;11.20;;;6.60;;
69170;SDS011;56279;47.902;12.308;2023-04-06T06:03:30;14.02;;;7.07;;
69170;SDS011;56279;47.902;12.308;2023-04-06T06:05:32;12.73;;;7.35;;
69170;SDS011;56279;47.902;12.308;2023-04-06T06:07:42;14.68;;;6.53;;
69170;SDS011;56279;47.902;12.308;2023-04-06T06:09:43;10.73;;;6.07;;
69170;SDS011;56279;47.902;12.308;2023-04-06T06:12:12;10.50;;;5.88;;
69170;SDS011;56279;47.902;12.308;2023-04-06T06:14:13;9.98;;;5.63;;
69170;SDS011;56279;47.902;12.308;2023-04-06T06:16:17;11.98;;;6.10;;
69170;SDS011;56279;47.902;12.308;2023-04-06T06:18:22;10.77;;;5.70;;
69170;SDS011;56279;47.902;12.308;2023-04-06T06:20:26;10.77;;;5.82;;
69170;SDS011;56279;47.902;12.308;2023-04-06T06:22:28;9.43;;;5.50;;
69170;SDS011;56279;47.902;12.308;2023-04-06T06:24:29;11.88;;;6.30;;
69170;SDS011;56279;47.902;12.308;2023-04-06T06:26:33;12.80;;;5.85;;
69170;SDS011;56279;47.902;12.308;2023-04-06T06:28:36;9.55;;;5.78;;
69170;SDS011;56279;47.902;12.308;2023-04-06T06:30:41;10.15;;;5.82;;
69170;SDS011;56279;47.902;12.308;2023-04-06T06:32:42;9.85;;;5.38;;
69170;SDS011;56279;47.902;12.308;2023-04-06T06:34:43;11.05;;;6.07;;
69170;SDS011;56279;47.902;12.308;2023-04-06T06:36:45;8.75;;;5.15;;
69170;SDS011;56279;47.902;12.308;2023-04-06T06:38:47;9.77;;;5.80;;
69170;SDS011;56279;47.902;12.308;2023-04-06T06:40:52;11.40;;;5.60;;
69170;SDS011;56279;47.902;12.308;2023-04-06T06:42:54;11.02;;;6.00;;
69170;SDS011;56279;47.902;12.308;2023-04-06T06:45:03;11.45;;;5.60;;
69170;SDS011;56279;47.902;12.308;2023-04-06T06:47:05;11.27;;;6.43;;
69170;SDS011;56279;47.902;12.308;2023-04-06T06:49:07;9.98;;;5.35;;
69170;SDS011;56279;47.902;12.308;2023-04-06T06:51:08;11.77;;;5.90;;
69170;SDS011;56279;47.902;12.308;2023-04-06T06:53:10;11.05;;;5.60;;
69170;SDS011;56279;47.902;12.308;2023-04-06T06:55:12;9.77;;;5.88;;
69170;SDS011;56279;47.902;12.308;2023-04-06T06:57:13;10.73;;;6.05;;
69170;SDS011;56279;47.902;12.308;2023-04-06T06:59:15;20.13;;;8.55;;
69170;SDS011;56279;47.902;12.308;2023-04-06T07:01:17;11.52;;;6.55;;
69170;SDS011;56279;47.902;12.308;2023-04-06T07:03:18;11.23;;;6.72;;
69170;SDS011;56279;47.902;12.308;2023-04-06T07:05:19;11.30;;;5.82;;
69170;SDS011;56279;47.902;12.308;2023-04-06T07:07:21;12.80;;;5.95;;
69170;SDS011;56279;47.902;12.308;2023-04-06T07:09:22;11.10;;;5.75;;
69170;SDS011;56279;47.902;12.308;2023-04-06T07:11:24;9.40;;;5.85;;
69170;SDS011;56279;47.902;12.308;2023-04-06T07:13:25;9.18;;;5.32;;
69170;SDS011;56279;47.902;12.308;2023-04-06T07:15:30;10.43;;;5.68;;
69170;SDS011;56279;47.902;12.308;2023-04-06T07:17:32;10.52;;;6.05;;
69170;SDS011;56279;47.902;12.308;2023-04-06T07:19:34;11.45;;;5.57;;
69170;SDS011;56279;47.902;12.308;2023-04-06T07:21:36;10.98;;;5.78;;
69170;SDS011;56279;47.902;12.308;2023-04-06T07:23:37;10.60;;;5.85;;
69170;SDS011;56279;47.902;12.308;2023-04-06T07:25:38;11.80;;;5.57;;
69170;SDS011;56279;47.902;12.308;2023-04-06T07:27:40;8.80;;;5.30;;
69170;SDS011;56279;47.902;12.308;2023-04-06T07:29:42;9.40;;;5.47;;
69170;SDS011;56279;47.902;12.308;2023-04-06T07:31:43;11.32;;;5.30;;
69170;SDS011;56279;47.902;12.308;2023-04-06T07:33:46;10.75;;;5.50;;
69170;SDS011;56279;47.902;12.308;2023-04-06T07:35:48;9.43;;;5.55;;
69170;SDS011;56279;47.902;12.308;2023-04-06T07:37:49;9.80;;;5.50;;
69170;SDS011;56279;47.902;12.308;2023-04-06T07:39:51;8.73;;;5.32;;
69170;SDS011;56279;47.902;12.308;2023-04-06T07:41:52;10.23;;;5.50;;
69170;SDS011;56279;47.902;12.308;2023-04-06T07:43:54;7.70;;;4.90;;
69170;SDS011;56279;47.902;12.308;2023-04-06T07:45:55;10.13;;;5.00;;
69170;SDS011;56279;47.902;12.308;2023-04-06T07:47:58;9.25;;;5.10;;
69170;SDS011;56279;47.902;12.308;2023-04-06T07:50:01;11.65;;;5.25;;
69170;SDS011;56279;47.902;12.308;2023-04-06T07:52:04;12.15;;;5.38;;
69170;SDS011;56279;47.902;12.308;2023-04-06T07:54:07;9.63;;;5.10;;
69170;SDS011;56279;47.902;12.308;2023-04-06T07:56:10;11.20;;;5.03;;
69170;SDS011;56279;47.902;12.308;2023-04-06T07:58:13;8.35;;;4.72;;
69170;SDS011;56279;47.902;12.308;2023-04-06T08:00:14;9.05;;;4.90;;
69170;SDS011;56279;47.902;12.308;2023-04-06T08:02:16;8.75;;;4.75;;
69170;SDS011;56279;47.902;12.308;2023-04-06T08:04:18;8.38;;;5.35;;
69170;SDS011;56279;47.902;12.308;2023-04-06T08:06:19;11.27;;;5.03;;
69170;SDS011;56279;47.902;12.308;2023-04-06T08:08:21;9.43;;;5.20;;
69170;SDS011;56279;47.902;12.308;2023-04-06T08:10:22;8.90;;;5.07;;
69170;SDS011;56279;47.902;12.308;2023-04-06T08:12:23;10.27;;;5.30;;
69170;SDS011;56279;47.902;12.308;2023-04-06T08:14:25;8.77;;;4.93;;
69170;SDS011;56279;47.902;12.308;2023-04-06T08:16:26;10.77;;;5.18;;
69170;SDS011;56279;47.902;12.308;2023-04-06T08:18:27;10.25;;;5.32;;
69170;SDS011;56279;47.902;12.308;2023-04-06T08:20:30;8.65;;;5.43;;
69170;SDS011;56279;47.902;12.308;2023-04-06T08:22:32;10.23;;;4.72;;
69170;SDS011;56279;47.902;12.308;2023-04-06T08:24:33;9.50;;;4.60;;
69170;SDS011;56279;47.902;12.308;2023-04-06T08:26:35;8.50;;;4.97;;
69170;SDS011;56279;47.902;12.308;2023-04-06T08:28:38;10.15;;;5.63;;
69170;SDS011;56279;47.902;12.308;2023-04-06T08:30:40;9.48;;;4.95;;
69170;SDS011;56279;47.902;12.308;2023-04-06T08:32:42;10.60;;;4.90;;
69170;SDS011;56279;47.902;12.308;2023-04-06T08:34:43;9.23;;;4.93;;
69170;SDS011;56279;47.902;12.308;2023-04-06T08:36:45;9.60;;;4.88;;
69170;SDS011;56279;47.902;12.308;2023-04-06T08:38:47;7.57;;;4.13;;
69170;SDS011;56279;47.902;12.308;2023-04-06T08:40:49;7.78;;;4.20;;
69170;SDS011;56279;47.902;12.308;2023-04-06T08:42:54;9.02;;;4.80;;
69170;SDS011;56279;47.902;12.308;2023-04-06T08:44:56;10.18;;;4.72;;
69170;SDS011;56279;47.902;12.308;2023-04-06T08:46:58;10.02;;;5.22;;
69170;SDS011;56279;47.902;12.308;2023-04-06T08:49:01;10.82;;;5.30;;
69170;SDS011;56279;47.902;12.308;2023-04-06T08:51:04;10.55;;;5.72;;
69170;SDS011;56279;47.902;12.308;2023-04-06T08:53:06;10.48;;;5.50;;
69170;SDS011;56279;47.902;12.308;2023-04-06T08:55:09;9.52;;;4.70;;
69170;SDS011;56279;47.902;12.308;2023-04-06T08:57:10;8.90;;;4.80;;
69170;SDS011;56279;47.902;12.308;2023-04-06T08:59:12;8.20;;;4.90;;
69170;SDS011;56279;47.902;12.308;2023-04-06T09:01:14;9.02;;;4.85;;
69170;SDS011;56279;47.902;12.308;2023-04-06T09:03:19;9.30;;;5.13;;
69170;SDS011;56279;47.902;12.308;2023-04-06T09:05:22;8.18;;;4.60;;
69170;SDS011;56279;47.902;12.308;2023-04-06T09:07:26;8.00;;;4.38;;
69170;SDS011;56279;47.902;12.308;2023-04-06T09:09:28;11.18;;;5.32;;
69170;SDS011;56279;47.902;12.308;2023-04-06T09:11:29;8.48;;;4.72;;
69170;SDS011;56279;47.902;12.308;2023-04-06T09:13:45;9.73;;;5.22;;
69170;SDS011;56279;47.902;12.308;2023-04-06T09:18:05;10.55;;;5.20;;
69170;SDS011;56279;47.902;12.308;2023-04-06T09:20:08;7.95;;;4.63;;
69170;SDS011;56279;47.902;12.308;2023-04-06T09:22:10;8.68;;;5.28;;
69170;SDS011;56279;47.902;12.308;2023-04-06T09:24:11;9.43;;;5.20;;
69170;SDS011;56279;47.902;12.308;2023-04-06T09:26:13;8.25;;;4.82;;
69170;SDS011;56279;47.902;12.308;2023-04-06T09:28:18;9.93;;;4.88;;
69170;SDS011;56279;47.902;12.308;2023-04-06T09:30:19;8.15;;;5.35;;
69170;SDS011;56279;47.902;12.308;2023-04-06T09:32:21;10.07;;;5.75;;
69170;SDS011;56279;47.902;12.308;2023-04-06T09:34:23;9.38;;;5.57;;
69170;SDS011;56279;47.902;12.308;2023-04-06T09:36:31;8.75;;;5.32;;
69170;SDS011;56279;47.902;12.308;2023-04-06T09:38:52;10.85;;;5.45;;
69170;SDS011;56279;47.902;12.308;2023-04-06T09:40:57;11.70;;;5.22;;
69170;SDS011;56279;47.902;12.308;2023-04-06T09:42:58;9.52;;;4.95;;
69170;SDS011;56279;47.902;12.308;2023-04-06T09:45:01;10.73;;;5.43;;
69170;SDS011;56279;47.902;12.308;2023-04-06T09:47:06;9.38;;;4.97;;
69170;SDS011;56279;47.902;12.308;2023-04-06T09:49:09;10.77;;;5.22;;
69170;SDS011;56279;47.902;12.308;2023-04-06T09:51:11;9.15;;;5.50;;
69170;SDS011;56279;47.902;12.308;2023-04-06T09:53:19;8.93;;;5.20;;
69170;SDS011;56279;47.902;12.308;2023-04-06T09:55:32;8.90;;;4.85;;
69170;SDS011;56279;47.902;12.308;2023-04-06T09:59:55;9.32;;;4.85;;
69170;SDS011;56279;47.902;12.308;2023-04-06T10:02:15;9.80;;;5.13;;
69170;SDS011;56279;47.902;12.308;2023-04-06T10:04:42;10.57;;;5.30;;
69170;SDS011;56279;47.902;12.308;2023-04-06T10:06:47;12.02;;;5.43;;
69170;SDS011;56279;47.902;12.308;2023-04-06T10:08:53;10.98;;;5.45;;
69170;SDS011;56279;47.902;12.308;2023-04-06T10:10:56;9.55;;;5.30;;
69170;SDS011;56279;47.902;12.308;2023-04-06T10:12:58;8.45;;;5.50;;
69170;SDS011;56279;47.902;12.308;2023-04-06T10:15:00;8.35;;;4.70;;
69170;SDS011;56279;47.902;12.308;2023-04-06T10:17:03;9.13;;;5.00;;
69170;SDS011;56279;47.902;12.308;2023-04-06T10:19:06;9.00;;;5.30;;
69170;SDS011;56279;47.902;12.308;2023-04-06T10:21:24;9.93;;;5.70;;
69170;SDS011;56279;47.902;12.308;2023-04-06T10:23:32;10.85;;;5.50;;
69170;SDS011;56279;47.902;12.308;2023-04-06T10:25:36;12.88;;;4.95;;
69170;SDS011;56279;47.902;12.308;2023-04-06T10:27:38;10.00;;;5.28;;
69170;SDS011;56279;47.902;12.308;2023-04-06T10:29:46;16.37;;;6.00;;
69170;SDS011;56279;47.902;12.308;2023-04-06T10:31:49;9.98;;;5.20;;
69170;SDS011;56279;47.902;12.308;2023-04-06T10:33:58;11.93;;;6.18;;
69170;SDS011;56279;47.902;12.308;2023-04-06T10:36:14;9.98;;;5.80;;
69170;SDS011;56279;47.902;12.308;2023-04-06T10:38:34;8.75;;;5.38;;
69170;SDS011;56279;47.902;12.308;2023-04-06T10:40:40;9.63;;;5.53;;
69170;SDS011;56279;47.902;12.308;2023-04-06T10:42:47;10.63;;;5.18;;
69170;SDS011;56279;47.902;12.308;2023-04-06T10:44:49;8.52;;;5.22;;
69170;SDS011;56279;47.902;12.308;2023-04-06T10:46:57;10.57;;;5.35;;
69170;SDS011;56279;47.902;12.308;2023-04-06T10:49:11;9.45;;;5.75;;
69170;SDS011;56279;47.902;12.308;2023-04-06T10:51:14;11.63;;;5.27;;
69170;SDS011;56279;47.902;12.308;2023-04-06T10:53:22;11.57;;;4.90;;
69170;SDS011;56279;47.902;12.308;2023-04-06T10:55:27;11.10;;;6.15;;
69170;SDS011;56279;47.902;12.308;2023-04-06T10:57:29;10.52;;;5.47;;
69170;SDS011;56279;47.902;12.308;2023-04-06T10:59:33;9.77;;;5.72;;
69170;SDS011;56279;47.902;12.308;2023-04-06T11:01:35;10.03;;;5.40;;
69170;SDS011;56279;47.902;12.308;2023-04-06T11:03:45;10.07;;;5.55;;
69170;SDS011;56279;47.902;12.308;2023-04-06T11:05:50;10.13;;;5.25;;
69170;SDS011;56279;47.902;12.308;2023-04-06T11:07:52;8.60;;;5.10;;
69170;SDS011;56279;47.902;12.308;2023-04-06T11:09:53;8.52;;;5.40;;
69170;SDS011;56279;47.902;12.308;2023-04-06T11:11:56;11.33;;;5.40;;
69170;SDS011;56279;47.902;12.308;2023-04-06T11:13:58;11.38;;;5.60;;
69170;SDS011;56279;47.902;12.308;2023-04-06T11:16:00;13.75;;;6.20;;
69170;SDS011;56279;47.902;12.308;2023-04-06T11:18:05;9.40;;;5.60;;
69170;SDS011;56279;47.902;12.308;2023-04-06T11:20:09;8.57;;;5.65;;
69170;SDS011;56279;47.902;12.308;2023-04-06T11:22:12;10.70;;;5.83;;
69170;SDS011;56279;47.902;12.308;2023-04-06T11:24:14;10.68;;;5.68;;
69170;SDS011;56279;47.902;12.308;2023-04-06T11:26:17;9.80;;;5.43;;
69170;SDS011;56279;47.902;12.308;2023-04-06T11:28:19;9.30;;;5.05;;
69170;SDS011;56279;47.902;12.308;2023-04-06T11:30:21;12.02;;;5.68;;
69170;SDS011;56279;47.902;12.308;2023-04-06T11:32:22;10.20;;;5.50;;
69170;SDS011;56279;47.902;12.308;2023-04-06T11:34:25;10.38;;;6.28;;
69170;SDS011;56279;47.902;12.308;2023-04-06T11:36:28;10.05;;;5.75;;
69170;SDS011;56279;47.902;12.308;2023-04-06T11:38:31;10.32;;;6.03;;
69170;SDS011;56279;47.902;12.308;2023-04-06T11:40:33;11.55;;;6.00;;
69170;SDS011;56279;47.902;12.308;2023-04-06T11:42:34;10.47;;;6.13;;
69170;SDS011;56279;47.902;12.308;2023-04-06T11:44:40;9.40;;;5.55;;
69170;SDS011;56279;47.902;12.308;2023-04-06T11:46:56;10.27;;;5.35;;
69170;SDS011;56279;47.902;12.308;2023-04-06T11:48:58;11.40;;;5.35;;
69170;SDS011;56279;47.902;12.308;2023-04-06T11:51:01;10.55;;;5.95;;
69170;SDS011;56279;47.902;12.308;2023-04-06T11:53:04;10.00;;;5.97;;
69170;SDS011;56279;47.902;12.308;2023-04-06T11:55:15;10.20;;;5.95;;
69170;SDS011;56279;47.902;12.308;2023-04-06T11:57:18;10.65;;;6.25;;
69170;SDS011;56279;47.902;12.308;2023-04-06T11:59:20;11.30;;;6.20;;
69170;SDS011;56279;47.902;12.308;2023-04-06T12:01:22;11.60;;;6.97;;
69170;SDS011;56279;47.902;12.308;2023-04-06T12:03:24;10.33;;;5.53;;
69170;SDS011;56279;47.902;12.308;2023-04-06T12:05:26;13.50;;;6.50;;
69170;SDS011;56279;47.902;12.308;2023-04-06T12:07:28;10.23;;;6.35;;
69170;SDS011;56279;47.902;12.308;2023-04-06T12:09:31;11.02;;;5.97;;
69170;SDS011;56279;47.902;12.308;2023-04-06T12:11:32;10.55;;;6.25;;
69170;SDS011;56279;47.902;12.308;2023-04-06T12:13:33;11.27;;;6.67;;
69170;SDS011;56279;47.902;12.308;2023-04-06T12:15:35;11.18;;;5.90;;
69170;SDS011;56279;47.902;12.308;2023-04-06T12:17:36;10.27;;;6.50;;
69170;SDS011;56279;47.902;12.308;2023-04-06T12:19:38;11.07;;;6.38;;
69170;SDS011;56279;47.902;12.308;2023-04-06T12:21:39;10.02;;;6.32;;
69170;SDS011;56279;47.902;12.308;2023-04-06T12:23:41;12.43;;;6.40;;
69170;SDS011;56279;47.902;12.308;2023-04-06T12:25:43;10.27;;;6.75;;
69170;SDS011;56279;47.902;12.308;2023-04-06T12:27:44;10.80;;;5.93;;
69170;SDS011;56279;47.902;12.308;2023-04-06T12:29:46;10.55;;;6.20;;
69170;SDS011;56279;47.902;12.308;2023-04-06T12:31:48;10.68;;;6.43;;
69170;SDS011;56279;47.902;12.308;2023-04-06T12:33:49;10.13;;;6.10;;
69170;SDS011;56279;47.902;12.308;2023-04-06T12:35:51;9.75;;;6.00;;
69170;SDS011;56279;47.902;12.308;2023-04-06T12:37:52;9.82;;;6.07;;
69170;SDS011;56279;47.902;12.308;2023-04-06T12:39:54;13.43;;;6.35;;
69170;SDS011;56279;47.902;12.308;2023-04-06T12:41:55;9.90;;;6.03;;
69170;SDS011;56279;47.902;12.308;2023-04-06T12:43:58;10.57;;;6.30;;
69170;SDS011;56279;47.902;12.308;2023-04-06T12:46:03;9.25;;;5.70;;
69170;SDS011;56279;47.902;12.308;2023-04-06T12:48:04;12.52;;;5.45;;
69170;SDS011;56279;47.902;12.308;2023-04-06T12:50:06;10.48;;;6.18;;
69170;SDS011;56279;47.902;12.308;2023-04-06T12:52:07;10.88;;;6.22;;
69170;SDS011;56279;47.902;12.308;2023-04-06T12:54:09;10.33;;;6.20;;
69170;SDS011;56279;47.902;12.308;2023-04-06T12:56:13;11.27;;;6.45;;
69170;SDS011;56279;47.902;12.308;2023-04-06T12:58:16;10.23;;;6.07;;
69170;SDS011;56279;47.902;12.308;2023-04-06T13:00:18;10.05;;;6.43;;
69170;SDS011;56279;47.902;12.308;2023-04-06T13:02:20;10.05;;;7.05;;
69170;SDS011;56279;47.902;12.308;2023-04-06T13:04:22;10.50;;;6.67;;
69170;SDS011;56279;47.902;12.308;2023-04-06T13:06:24;10.40;;;6.60;;
69170;SDS011;56279;47.902;12.308;2023-04-06T13:08:28;10.57;;;6.57;;
69170;SDS011;56279;47.902;12.308;2023-04-06T13:10:29;10.05;;;6.60;;
69170;SDS011;56279;47.902;12.308;2023-04-06T13:12:30;9.50;;;5.85;;
69170;SDS011;56279;47.902;12.308;2023-04-06T13:14:32;11.23;;;6.10;;
69170;SDS011;56279;47.902;12.308;2023-04-06T13:16:33;9.38;;;6.38;;
69170;SDS011;56279;47.902;12.308;2023-04-06T13:18:37;12.02;;;5.70;;
69170;SDS011;56279;47.902;12.308;2023-04-06T13:20:39;10.07;;;6.78;;
69170;SDS011;56279;47.902;12.308;2023-04-06T13:22:41;10.07;;;6.32;;
69170;SDS011;56279;47.902;12.308;2023-04-06T13:24:42;10.07;;;6.30;;
69170;SDS011;56279;47.902;12.308;2023-04-06T13:26:43;11.40;;;6.30;;
69170;SDS011;56279;47.902;12.308;2023-04-06T13:28:45;10.52;;;6.55;;
69170;SDS011;56279;47.902;12.308;2023-04-06T13:30:48;11.18;;;6.00;;
69170;SDS011;56279;47.902;12.308;2023-04-06T13:32:49;10.98;;;5.72;;
69170;SDS011;56279;47.902;12.308;2023-04-06T13:34:54;11.00;;;6.20;;
69170;SDS011;56279;47.902;12.308;2023-04-06T13:36:56;11.40;;;7.10;;
69170;SDS011;56279;47.902;12.308;2023-04-06T13:38:57;9.75;;;6.43;;
69170;SDS011;56279;47.902;12.308;2023-04-06T13:40:59;11.60;;;6.28;;
69170;SDS011;56279;47.902;12.308;2023-04-06T13:43:01;12.23;;;6.35;;
69170;SDS011;56279;47.902;12.308;2023-04-06T13:45:03;10.40;;;6.00;;
69170;SDS011;56279;47.902;12.308;2023-04-06T13:47:05;8.65;;;5.78;;
69170;SDS011;56279;47.902;12.308;2023-04-06T13:49:07;10.48;;;5.90;;
69170;SDS011;56279;47.902;12.308;2023-04-06T13:51:09;9.45;;;5.97;;
69170;SDS011;56279;47.902;12.308;2023-04-06T13:53:14;11.18;;;6.38;;
69170;SDS011;56279;47.902;12.308;2023-04-06T13:55:15;9.63;;;5.77;;
69170;SDS011;56279;47.902;12.308;2023-04-06T13:57:16;11.18;;;5.90;;
69170;SDS011;56279;47.902;12.308;2023-04-06T13:59:18;8.38;;;5.75;;
69170;SDS011;56279;47.902;12.308;2023-04-06T14:01:19;10.20;;;6.30;;
69170;SDS011;56279;47.902;12.308;2023-04-06T14:03:21;17.33;;;6.45;;
69170;SDS011;56279;47.902;12.308;2023-04-06T14:05:23;11.43;;;5.63;;
69170;SDS011;56279;47.902;12.308;2023-04-06T14:07:25;10.77;;;5.93;;
69170;SDS011;56279;47.902;12.308;2023-04-06T14:09:27;9.23;;;5.60;;
69170;SDS011;56279;47.902;12.308;2023-04-06T14:11:29;11.02;;;6.47;;
69170;SDS011;56279;47.902;12.308;2023-04-06T14:13:30;12.80;;;6.20;;
69170;SDS011;56279;47.902;12.308;2023-04-06T14:15:32;11.27;;;6.23;;
69170;SDS011;56279;47.902;12.308;2023-04-06T14:17:33;9.93;;;5.63;;
69170;SDS011;56279;47.902;12.308;2023-04-06T14:19:34;9.68;;;5.50;;
69170;SDS011;56279;47.902;12.308;2023-04-06T14:21:37;8.77;;;5.57;;
69170;SDS011;56279;47.902;12.308;2023-04-06T14:23:40;8.70;;;5.30;;
69170;SDS011;56279;47.902;12.308;2023-04-06T14:25:41;8.33;;;5.57;;
69170;SDS011;56279;47.902;12.308;2023-04-06T14:27:43;11.13;;;5.78;;
69170;SDS011;56279;47.902;12.308;2023-04-06T14:29:46;10.77;;;5.95;;
69170;SDS011;56279;47.902;12.308;2023-04-06T14:31:47;9.05;;;5.97;;
69170;SDS011;56279;47.902;12.308;2023-04-06T14:33:49;10.55;;;5.35;;
69170;SDS011;56279;47.902;12.308;2023-04-06T14:35:50;10.10;;;5.90;;
69170;SDS011;56279;47.902;12.308;2023-04-06T14:37:51;10.35;;;5.43;;
69170;SDS011;56279;47.902;12.308;2023-04-06T14:39:54;9.38;;;5.53;;
69170;SDS011;56279;47.902;12.308;2023-04-06T14:41:56;8.93;;;5.45;;
69170;SDS011;56279;47.902;12.308;2023-04-06T14:43:57;9.85;;;5.95;;
69170;SDS011;56279;47.902;12.308;2023-04-06T14:45:59;8.77;;;5.80;;
69170;SDS011;56279;47.902;12.308;2023-04-06T14:48:04;10.25;;;5.82;;
69170;SDS011;56279;47.902;12.308;2023-04-06T14:50:07;7.85;;;5.43;;
69170;SDS011;56279;47.902;12.308;2023-04-06T14:52:08;9.75;;;5.60;;
69170;SDS011;56279;47.902;12.308;2023-04-06T14:54:10;10.50;;;5.93;;
69170;SDS011;56279;47.902;12.308;2023-04-06T14:56:11;8.47;;;5.13;;
69170;SDS011;56279;47.902;12.308;2023-04-06T14:58:12;11.30;;;6.38;;
69170;SDS011;56279;47.902;12.308;2023-04-06T15:00:14;10.07;;;6.15;;
69170;SDS011;56279;47.902;12.308;2023-04-06T15:02:16;9.48;;;5.50;;
69170;SDS011;56279;47.902;12.308;2023-04-06T15:04:17;11.07;;;5.95;;
69170;SDS011;56279;47.902;12.308;2023-04-06T15:06:19;10.83;;;5.60;;
69170;SDS011;56279;47.902;12.308;2023-04-06T15:08:22;8.55;;;5.82;;
69170;SDS011;56279;47.902;12.308;2023-04-06T15:10:24;10.45;;;5.78;;
69170;SDS011;56279;47.902;12.308;2023-04-06T15:12:25;9.50;;;5.97;;
69170;SDS011;56279;47.902;12.308;2023-04-06T15:14:28;9.68;;;5.72;;